Borsbeek, Belgium
Current Conditions -  °F | °C
As of 9:20 AM on Sunday 21 Dec 2014 (Local Time) from EBAW Reporting Station
Few Clouds Few Clouds  
Wind Chill:   Ceiling: Unl
Heat Index:   Visibility: 6mi
Dew Point:   Wind: 9mph
Humidity: 87%   Direction: 220°SW
Pressure: 30.42"   Gusts: NA
Location:  51.2°N, 4.49°E
Report Text: EBAW 210820Z 22008KT 9999 FEW040 05/03 Q1030 NOSIG
Loading
Personal Weather Stations






























Interactive Weather Map New forecast layout! Learn more

10-Day Weather Forecast

Advertisements
Track Severe Weather on mobile